Terminal Aerodrome Forecast
Issued by NWS

Home | Current Version | Previous Version | Text Only | Print | Product List | Glossary On
Versions: 1 2 3 4 5 6 7 8 9 10 11 12 13 14 15 16 17 18 19 20 21
000
FTUS41 KBGM 311721
TAFITH
TAF
KITH 311721Z 3118/0118 32007KT P6SM BKN050
     FM010000 VRB03KT P6SM SKC
     FM010900 VRB03KT 3SM BR SKC
     FM011500 VRB03KT P6SM SCT045=

USA.gov is the U.S. government's official web portal to all federal, state and local government web resources and services.